EDLV/NRN METAR and TAF weather

Enter ICAO airport designator
Station Type Date Time Source
EDLV METAR 2018/04/21 11:20 UTC NOAA

EDLV 211120Z VRB05KT CAVOK 20/12 Q1022


Station Type Date Time Source
EDLV Decoded METAR 2018/04/21 11:20 UTC NOAA

Niederrhein, Germany (EDLV) 51-36-09N 006-08-32E
Apr 21, 2018 - 07:20 AM EDT / 2018.04.21 1120 UTC
Wind: Variable at 6 MPH (5 KT):0
Visibility: greater than 7 mile(s):0
Temperature: 68 F (20 C)
Dew Point: 53 F (12 C)
Relative Humidity: 59%
Pressure (altimeter): 30.18 in. Hg (1022 hPa)
ob: EDLV 211120Z VRB05KT CAVOK 20/12 Q1022
cycle: 11

Station Type Date Time Source
EDLV TAF 2018/04/21 12:27 UTC NOAA

TAF EDLV 211100Z 2112/2212 02005KT CAVOK
BECMG 2119/2121 09005KT
BECMG 2204/2206 15005KT
BECMG 2208/2211 21007KT


Example: see airport list